Airfield :
LOGIN :

Register | Disclaimer

   EN    FR    IT 

 










Legend :    VFR   Marginal VFR   IFR   Intensive IFR   Very Intensive IFR
Visi :
Ceiling :
>= 8 km
>= 3000ft
5 to 8 km
1000 to 3000 ft
1500m to 5 km
500 to 1000 ft
800 to 1500m
200 to 500 ft
< 800m
< 200 ft
Symbols :   Thunderstorms  Fog  Heavy snow  Heavy precipitations  Wind > 20 kt
SIGMETs :     Misc.  Thunderstorms  Icing  Turbulence  Mountain Waves  Volcanic Ashes







- Airport Elevation : 32 ft
- IATA code : LKZ


EGUL - RAF Lakenheath

CURRENT METAR :
  • 210156Z AUTO 22008KT 9999 SCT070 08/06 A3016 RMK AO2 SLP217 T00840055 $

EXPIRED METARs :
  • 210056Z AUTO 20011KT 9999 SCT085 08/06 A3015 RMK AO2 SLP213 T00820055 $
  • 202356Z AUTO 22008KT 9999 SCT090 09/05 A3015 RMK AO2 SLP213 T00850052 10100 20085 401270075 52010 $
  • 202341Z AUTO 22010KT 9999 FEW020 BKN090 09/05 A3015 RMK AO2 SLP213 $

TAF TAF EGUL
Valid from the 20 at 20:00 until the 22 at 02:00 UTC


202003Z 2020/2202 22012KT 9999 BKN080 QNH3010INS
BECMG 2103/2104 22012KT 9999 BKN020 BKN060 QNH3017INS
BECMG 2106/2107 23010G15KT 9999 BKN015 BKN060 QNH3018INS
BECMG 2200/2201 23009KT 9999 FEW020 QNH3038INS TX12/2113Z TN06/2103Z
No reported NOTAMs for that airfield.



MET'MAP, your aeronautical weather chart ! - Copyright ORBIFLY December 2007 - Disclaimer

ORBIFLY MET'MAP TEAM :

Programming & Development : Alexandra Zaïnal
Concept & Development : Baudouin d'Aumeries
Co-Development & Prog : Marc-Olivier Méhu
Technical & hardware support : Manuel Goepfert

Contact : metmap@orbifly.com




SOURCES & CREDITS :

   NOAA